Airfield :
LOGIN :

Register | Disclaimer

   EN    FR    IT 

 










Legend :    VFR   Marginal VFR   IFR   Intensive IFR   Very Intensive IFR
Visi :
Ceiling :
>= 8 km
>= 3000ft
5 to 8 km
1000 to 3000 ft
1500m to 5 km
500 to 1000 ft
800 to 1500m
200 to 500 ft
< 800m
< 200 ft
Symbols :   Thunderstorms  Fog  Heavy snow  Heavy precipitations  Wind > 20 kt
SIGMETs :     Misc.  Thunderstorms  Icing  Turbulence  Mountain Waves  Volcanic Ashes






- Airport Elevation : 33 ft
- IATA code : MHZ


EGUN - RAF Mildenhall

CURRENT METAR :
  • 272056Z 22008KT 9999 FEW060 12/08 A3001 RMK AO2A SLP165 T01190082 52026 $

EXPIRED METARs :
  • 271956Z 23010KT 9999 FEW060 12/07 A2999 RMK AO2A SLP159 T01230074 $
  • 271856Z 24011KT 9999 FEW060 14/06 A2996 RMK AO2A SLP149 T01380062 $

TAF TAF EGUN
Valid from the 27 at 20:00 until the 29 at 02:00 UTC


272000Z 2720/2902 22010KT 9999 FEW060 SCT250 QNH2998INS
TEMPO 2720/2724 25010G20KT
BECMG 2800/2801 19010KT 9999 FEW060 BKN200 QNH3001INS
BECMG 2806/2807 23010G15KT 9999 FEW030 SCT060 BKN160 510003 QNH3004INS
BECMG 2809/2810 18010G15KT 9999 SCT030 BKN060 BKN120 600804 510003 QNH2995INS
TEMPO 2811/2814 18015G25KT 520003
BECMG 2813/2814 19010G20KT 9999 VCSH FEW015 BKN030 OVC060 610807 510005 QNH2989INS
TEMPO 2814/2817 18020G30KT 5000 +SHRA BR SCT015 OVC030 640804 540005
BECMG 2816/2817 17010G20KT 9000 -SHRA BR SCT015 BKN025 OVC050 610807 510005 QNH2983INS
TEMPO 2817/2822 18020G30KT 5000 +SHRA BR FEW008 BKN015 OVC025 640804 540005
BECMG 2821/2822 24010G15KT 6000 -RA BR SCT008 BKN015 OVC025 620709 510003 QNH2979INS
TEMPO 2822/2902 22015G25KT 3200 +RA BR BKN008 OVC015 650705 540005
BECMG 2901/2902 27012KT 4000 -RA BR BKN008 OVC015 620606 QNH2985INS TX18/2813Z TN07/2805Z



MET'MAP, your aeronautical weather chart ! - Copyright ORBIFLY December 2007 - Disclaimer

ORBIFLY MET'MAP TEAM :

Programming & Development : Alexandra Zaïnal
Concept & original design : Baudouin d'Aumeries
Assistance for programming : Marc-Olivier Méhu
Technical & hardware support : Manuel Goepfert

Contact : metmap@orbifly.com




SOURCES & CREDITS :

   NOAA